カシュガル の空港の天気 - METARとTAF

カシュガル空港 ( ZWSH / KHG ) - 中華人民共和国 新疆ウイグル自治区カシュガル市
飛行場実況気象(Metar)
観測時間06/23 09:00 CST (06/23 01:00 UTC)
風向・風速西南西 3m/s
視程10km以上
天気現象
なし
気温23℃
湿度36%
気圧1013hPa
METARZWSH 230100Z 25003MPS 230V290 CAVOK 23/07 Q1013 NOSIG
過去の天気等 Google飛行場航空写真 Wunderground天気予報

過去48時間のMETAR

飛行場予報(TAF)
発表時間: 6/23 05:06 CST (6/22 21:06 UTC)
予報対象時間: 23日8時 CST ~ 24日8時 CST
風向・風速北西 4m/s
視程10km以上
少しの雲 雲底高度 1,220m
23日12時 CST ~ 23日13時 CST に徐々に
風向・風速東 4m/s
23日22時 CST ~ 23日23時 CST に徐々に
風向・風速北西 4m/s
TAF ZWSH 222106Z 2300/2324 32004MPS 9999 FEW040 TX31/2309Z TN20/2300Z
BECMG 2304/2305 09004MPS
BECMG 2314/2315 31004MPS